createdAt,value
2023-06-29T00:00:01.312Z,84.91
2023-06-29T00:00:32.262Z,85.72
2023-06-29T00:01:01.922Z,85.52
2023-06-29T00:01:33.772Z,85.55
2023-06-29T00:02:03.432Z,85.82
2023-06-29T00:02:34.093Z,85.55
2023-06-29T00:03:04.773Z,85.15
2023-06-29T00:03:36.727Z,85.05
2023-06-29T00:04:07.723Z,85.66
2023-06-29T00:04:38.642Z,85.76
2023-06-29T00:05:08.243Z,85.15
2023-06-29T00:05:38.844Z,84.84
2023-06-29T00:06:10.657Z,85.35
2023-06-29T00:06:41.575Z,84.84
2023-06-29T00:07:11.154Z,84.44
2023-06-29T00:07:43.086Z,84.74
2023-06-29T00:08:14.017Z,85.05
2023-06-29T00:08:45.322Z,85.35
2023-06-29T00:09:14.406Z,84.84
2023-06-29T00:09:46.325Z,84.54
2023-06-29T00:10:48.049Z,84.74
2023-06-29T00:11:18.974Z,84.84
2023-06-29T00:11:49.905Z,85.05
2023-06-29T00:12:20.811Z,85.15
2023-06-29T00:12:51.697Z,85.25
2023-06-29T00:13:21.306Z,85.15
2023-06-29T00:13:51.934Z,84.84
2023-06-29T00:14:23.849Z,84.34
2023-06-29T00:14:54.741Z,84.74
2023-06-29T00:15:25.660Z,84.74
2023-06-29T00:15:56.575Z,85.55
2023-06-29T00:16:27.481Z,85.55
2023-06-29T00:16:57.133Z,85.15
2023-06-29T00:17:28.652Z,85.05
2023-06-29T00:17:59.625Z,85.35
2023-06-29T00:18:30.386Z,85.76
2023-06-29T00:19:01.364Z,85.66
2023-06-29T00:19:31.926Z,85.05
2023-06-29T00:20:02.909Z,84.74
2023-06-29T00:20:33.405Z,85.25
2023-06-29T00:21:02.942Z,85.86
2023-06-29T00:21:34.856Z,85.15
2023-06-29T00:22:04.373Z,85.35
2023-06-29T00:22:35.004Z,85.15
2023-06-29T00:23:06.916Z,85.46
2023-06-29T00:23:37.813Z,85.35
2023-06-29T00:24:08.762Z,84.95
2023-06-29T00:24:39.654Z,84.84
2023-06-29T00:25:10.538Z,84.54
2023-06-29T00:25:41.835Z,84.74
2023-06-29T00:26:12.449Z,84.84
2023-06-29T00:26:43.354Z,84.54
2023-06-29T00:27:14.161Z,84.54
2023-06-29T00:27:45.055Z,84.74
2023-06-29T00:28:15.969Z,85.05
2023-06-29T00:28:45.954Z,84.44
2023-06-29T00:29:17.867Z,84.64
2023-06-29T00:29:48.783Z,85.05
2023-06-29T00:30:18.304Z,84.64
2023-06-29T00:30:50.268Z,84.84
2023-06-29T00:31:21.238Z,85.35
2023-06-29T00:31:50.774Z,85.76
2023-06-29T00:32:22.701Z,85.66
2023-06-29T00:32:53.687Z,85.46
2023-06-29T00:33:23.301Z,84.84
2023-06-29T00:33:53.856Z,85.35
2023-06-29T00:34:25.801Z,85.76
2023-06-29T00:34:56.951Z,85.46
2023-06-29T00:35:27.547Z,85.66
2023-06-29T00:36:29.378Z,85.35
2023-06-29T00:37:00.286Z,85.15
2023-06-29T00:37:31.184Z,85.55
2023-06-29T00:38:02.076Z,85.46
2023-06-29T00:38:32.978Z,85.86
2023-06-29T00:39:03.892Z,86.00
2023-06-29T00:39:34.777Z,85.19
2023-06-29T00:40:05.678Z,85.19
2023-06-29T00:40:36.647Z,84.99
2023-06-29T00:41:07.542Z,84.99
2023-06-29T00:41:38.474Z,85.39
2023-06-29T00:42:09.362Z,85.39
2023-06-29T00:42:40.269Z,85.60
2023-06-29T00:43:11.209Z,85.60
2023-06-29T00:43:40.766Z,86.15
2023-06-29T00:44:12.232Z,86.15
2023-06-29T00:44:41.835Z,85.74
2023-06-29T00:45:12.346Z,85.53
2023-06-29T00:45:44.621Z,85.33
2023-06-29T00:46:15.197Z,86.04
2023-06-29T00:46:46.172Z,86.35
2023-06-29T00:47:15.778Z,85.53
2023-06-29T00:47:47.725Z,85.23
2023-06-29T00:48:18.683Z,85.64
2023-06-29T00:48:49.307Z,85.74
2023-06-29T00:49:19.168Z,85.84
2023-06-29T00:49:51.010Z,85.64
2023-06-29T00:50:20.631Z,85.47
2023-06-29T00:50:51.263Z,85.68
2023-06-29T00:51:23.158Z,86.08
2023-06-29T00:51:54.106Z,86.69
2023-06-29T00:52:24.901Z,86.80
2023-06-29T00:52:54.530Z,86.80
2023-06-29T00:53:26.442Z,86.90
2023-06-29T00:53:57.374Z,86.39
2023-06-29T00:54:28.293Z,86.80
2023-06-29T00:54:59.247Z,87.20
2023-06-29T00:55:28.935Z,86.80
2023-06-29T00:55:59.547Z,86.49
2023-06-29T00:56:30.143Z,86.59
2023-06-29T00:57:02.046Z,86.49
2023-06-29T00:57:32.977Z,86.80
2023-06-29T00:58:02.576Z,87.51
2023-06-29T00:58:34.515Z,87.51
2023-06-29T00:59:05.399Z,87.20
2023-06-29T00:59:35.400Z,87.30
2023-06-29T01:00:07.313Z,87.10
2023-06-29T01:00:36.961Z,87.10
2023-06-29T01:01:08.921Z,87.81
2023-06-29T01:02:10.637Z,87.77
2023-06-29T01:02:41.767Z,87.26
2023-06-29T01:03:12.606Z,87.16
2023-06-29T01:03:42.505Z,87.16
2023-06-29T01:04:13.956Z,86.86
2023-06-29T01:04:44.875Z,86.86
2023-06-29T01:05:15.810Z,87.16
2023-06-29T01:05:46.988Z,87.06
2023-06-29T01:06:17.487Z,86.96
2023-06-29T01:06:48.378Z,86.86
2023-06-29T01:07:19.335Z,86.96
2023-06-29T01:07:49.017Z,86.55
2023-06-29T01:08:19.778Z,86.45
2023-06-29T01:08:50.387Z,86.76
2023-06-29T01:09:22.298Z,86.55
2023-06-29T01:09:53.112Z,86.55
2023-06-29T01:10:24.041Z,86.35
2023-06-29T01:10:53.600Z,86.04
2023-06-29T01:11:25.522Z,86.04
2023-06-29T01:11:55.137Z,86.25
2023-06-29T01:12:27.056Z,86.15
2023-06-29T01:12:57.990Z,85.98
2023-06-29T01:13:28.893Z,85.88
2023-06-29T01:13:58.514Z,85.88
2023-06-29T01:14:29.048Z,86.29
2023-06-29T01:15:00.986Z,85.78
2023-06-29T01:15:31.918Z,85.88
2023-06-29T01:16:02.806Z,86.08
2023-06-29T01:16:33.777Z,86.29
2023-06-29T01:17:04.232Z,86.49
2023-06-29T01:17:33.917Z,86.49
2023-06-29T01:18:04.680Z,87.00
2023-06-29T01:18:35.284Z,87.41
2023-06-29T01:19:07.193Z,87.41
2023-06-29T01:19:38.094Z,87.75
2023-06-29T01:20:09.024Z,88.16
2023-06-29T01:20:38.646Z,88.06
2023-06-29T01:21:09.323Z,87.81
2023-06-29T01:21:41.279Z,87.71
2023-06-29T01:22:10.797Z,88.02
2023-06-29T01:22:42.788Z,87.85
2023-06-29T01:23:13.241Z,88.26
2023-06-29T01:23:44.177Z,88.36
2023-06-29T01:24:15.088Z,88.87
2023-06-29T01:24:45.990Z,88.67
2023-06-29T01:25:16.875Z,88.77
2023-06-29T01:25:46.526Z,88.46
2023-06-29T01:26:18.043Z,88.67
2023-06-29T01:26:48.952Z,88.57
2023-06-29T01:27:19.752Z,88.87
2023-06-29T01:27:51.742Z,88.83
2023-06-29T01:28:21.149Z,88.83
2023-06-29T01:28:51.954Z,89.03
2023-06-29T01:29:21.564Z,88.73
2023-06-29T01:29:53.458Z,88.02
2023-06-29T01:30:23.050Z,87.61
2023-06-29T01:30:54.876Z,87.92
2023-06-29T01:31:25.816Z,88.42
2023-06-29T01:31:55.505Z,88.32
2023-06-29T01:32:27.604Z,88.22
2023-06-29T01:32:57.338Z,88.32
2023-06-29T01:33:28.771Z,88.12
2023-06-29T01:33:59.697Z,87.45
2023-06-29T01:34:30.629Z,87.35
2023-06-29T01:35:01.519Z,87.35
2023-06-29T01:35:32.419Z,87.75
2023-06-29T01:36:03.360Z,88.06
2023-06-29T01:36:34.287Z,87.65
2023-06-29T01:37:05.090Z,87.45
2023-06-29T01:37:34.618Z,87.35
2023-06-29T01:38:06.529Z,87.65
2023-06-29T01:38:37.437Z,87.55
2023-06-29T01:39:08.244Z,87.35
2023-06-29T01:39:39.165Z,87.55
2023-06-29T01:40:08.770Z,88.20
2023-06-29T01:40:40.688Z,88.61
2023-06-29T01:41:10.570Z,88.81
2023-06-29T01:41:41.096Z,88.61
2023-06-29T01:42:13.016Z,88.51
2023-06-29T01:42:43.909Z,88.92
2023-06-29T01:43:14.838Z,88.51
2023-06-29T01:43:44.446Z,88.71
2023-06-29T01:44:16.267Z,88.81
2023-06-29T01:44:47.232Z,88.61
2023-06-29T01:45:16.791Z,88.61
2023-06-29T01:45:48.736Z,88.51
2023-06-29T01:46:19.693Z,89.01
2023-06-29T01:46:49.297Z,89.53
2023-06-29T01:47:19.881Z,89.73
2023-06-29T01:47:51.953Z,89.83
2023-06-29T01:48:53.309Z,89.42
2023-06-29T01:49:24.384Z,89.32
2023-06-29T01:49:54.264Z,89.01
2023-06-29T01:50:26.203Z,89.42
2023-06-29T01:50:55.703Z,89.12
2023-06-29T01:51:27.638Z,89.32
2023-06-29T01:51:58.556Z,89.42
2023-06-29T01:52:28.162Z,89.42
2023-06-29T01:52:58.694Z,89.32
2023-06-29T01:53:32.672Z,89.12
2023-06-29T01:54:01.422Z,89.32
2023-06-29T01:54:32.342Z,89.53
2023-06-29T01:55:01.956Z,89.83
2023-06-29T01:55:33.858Z,89.63
2023-06-29T01:56:03.555Z,89.73
2023-06-29T01:56:35.473Z,90.20
2023-06-29T01:57:06.397Z,89.99
2023-06-29T01:57:37.301Z,89.38
2023-06-29T01:58:08.212Z,89.07
2023-06-29T01:58:37.815Z,89.28
2023-06-29T01:59:09.734Z,88.67
2023-06-29T01:59:40.535Z,88.57
2023-06-29T02:00:10.188Z,89.18
2023-06-29T02:00:40.803Z,89.28
2023-06-29T02:01:11.466Z,89.28
2023-06-29T02:01:43.411Z,89.07
2023-06-29T02:02:13.318Z,88.98
2023-06-29T02:02:45.340Z,88.77
2023-06-29T02:03:15.035Z,89.07
2023-06-29T02:03:47.034Z,89.18
2023-06-29T02:04:17.487Z,88.67
2023-06-29T02:04:48.391Z,88.57
2023-06-29T02:05:19.303Z,88.98
2023-06-29T02:05:50.210Z,88.77
2023-06-29T02:06:21.113Z,88.98
2023-06-29T02:06:52.031Z,89.38
2023-06-29T02:07:22.924Z,88.87
2023-06-29T02:07:53.865Z,88.67
2023-06-29T02:08:24.787Z,89.12
2023-06-29T02:08:55.684Z,89.59
2023-06-29T02:09:26.611Z,89.89
2023-06-29T02:09:57.506Z,89.69
2023-06-29T02:10:27.120Z,89.69
2023-06-29T02:10:59.017Z,89.69
2023-06-29T02:11:29.831Z,89.38
2023-06-29T02:12:00.747Z,89.38
2023-06-29T02:12:31.663Z,89.59
2023-06-29T02:13:02.557Z,89.38
2023-06-29T02:13:33.471Z,89.48
2023-06-29T02:14:04.387Z,89.48
2023-06-29T02:14:35.311Z,89.28
2023-06-29T02:15:06.207Z,89.48
2023-06-29T02:15:37.121Z,89.18
2023-06-29T02:16:08.086Z,88.67
2023-06-29T02:16:37.726Z,88.46
2023-06-29T02:17:08.280Z,88.46
2023-06-29T02:17:40.224Z,88.77
2023-06-29T02:18:11.140Z,88.46
2023-06-29T02:19:12.884Z,89.48
2023-06-29T02:19:43.804Z,89.38
2023-06-29T02:20:14.725Z,88.98
2023-06-29T02:20:45.613Z,88.98
2023-06-29T02:21:16.525Z,88.98
2023-06-29T02:21:47.446Z,89.18
2023-06-29T02:22:16.967Z,88.98
2023-06-29T02:22:48.931Z,88.87
2023-06-29T02:23:19.837Z,88.71
2023-06-29T02:23:50.743Z,88.57
2023-06-29T02:24:21.545Z,88.61
2023-06-29T02:24:52.447Z,89.12
2023-06-29T02:25:23.348Z,89.12
2023-06-29T02:25:52.853Z,89.12
2023-06-29T02:26:24.746Z,88.92
2023-06-29T02:26:55.633Z,88.92
2023-06-29T02:27:26.654Z,89.01
2023-06-29T02:27:57.330Z,89.32
2023-06-29T02:28:26.976Z,89.32
2023-06-29T02:28:58.864Z,89.12
2023-06-29T02:29:29.757Z,88.61
2023-06-29T02:30:00.688Z,88.81
2023-06-29T02:30:30.332Z,88.71
2023-06-29T02:31:02.260Z,88.31
2023-06-29T02:32:04.082Z,88.40
2023-06-29T02:32:35.012Z,88.71
2023-06-29T02:33:05.984Z,88.81
2023-06-29T02:33:35.644Z,88.92
2023-06-29T02:34:07.438Z,88.81
2023-06-29T02:34:37.049Z,88.92
2023-06-29T02:35:08.998Z,89.12
2023-06-29T02:35:39.932Z,89.01
2023-06-29T02:36:10.889Z,89.22
2023-06-29T02:36:41.796Z,89.67
2023-06-29T02:37:12.713Z,89.87
2023-06-29T02:37:45.752Z,89.47
2023-06-29T02:38:14.450Z,89.77
2023-06-29T02:38:45.339Z,90.08
2023-06-29T02:39:16.252Z,90.59
2023-06-29T02:39:47.156Z,90.69
2023-06-29T02:40:18.083Z,90.59
2023-06-29T02:40:48.990Z,90.28
2023-06-29T02:41:19.901Z,90.28
2023-06-29T02:41:50.792Z,90.79
2023-06-29T02:42:21.718Z,91.09
2023-06-29T02:42:51.292Z,91.09
2023-06-29T02:43:23.072Z,91.09
2023-06-29T02:43:53.976Z,91.16
2023-06-29T02:44:24.861Z,90.85
2023-06-29T02:44:55.790Z,90.55
2023-06-29T02:45:26.708Z,90.24
2023-06-29T02:45:56.317Z,90.14
2023-06-29T02:46:28.225Z,90.24
2023-06-29T02:46:57.805Z,90.24
2023-06-29T02:47:29.744Z,90.44
2023-06-29T02:48:00.668Z,90.34
2023-06-29T02:48:31.575Z,90.44
2023-06-29T02:49:02.509Z,90.34
2023-06-29T02:49:33.427Z,90.34
2023-06-29T02:50:04.317Z,90.34
2023-06-29T02:50:34.318Z,90.34
2023-06-29T02:51:06.238Z,90.44
2023-06-29T02:51:37.007Z,90.24
2023-06-29T02:52:07.809Z,90.34
2023-06-29T02:52:38.676Z,90.34
2023-06-29T02:53:09.538Z,90.34
2023-06-29T02:53:40.442Z,90.34
2023-06-29T02:54:11.365Z,89.63
2023-06-29T02:54:42.253Z,89.73
2023-06-29T02:55:13.137Z,89.63
2023-06-29T02:55:44.419Z,89.42
2023-06-29T02:56:13.622Z,89.01
2023-06-29T02:56:45.466Z,89.06
2023-06-29T02:57:16.303Z,89.16
2023-06-29T02:57:47.149Z,89.47
2023-06-29T02:58:18.032Z,89.87
2023-06-29T02:58:48.877Z,90.08
2023-06-29T02:59:19.731Z,90.18
2023-06-29T02:59:50.612Z,90.08
2023-06-29T03:00:21.490Z,90.48
2023-06-29T03:00:52.361Z,90.59
2023-06-29T03:01:23.279Z,90.59
2023-06-29T03:02:25.053Z,91.03
2023-06-29T03:02:54.739Z,90.94
2023-06-29T03:03:26.244Z,91.24
2023-06-29T03:03:56.932Z,91.03
2023-06-29T03:04:27.669Z,90.83
2023-06-29T03:04:57.637Z,90.94
2023-06-29T03:05:29.370Z,90.73
2023-06-29T03:06:00.235Z,90.83
2023-06-29T03:06:31.129Z,91.24
2023-06-29T03:07:02.002Z,91.03
2023-06-29T03:07:32.950Z,91.24
2023-06-29T03:08:03.415Z,91.35
2023-06-29T03:08:34.264Z,90.94
2023-06-29T03:09:03.865Z,91.35
2023-06-29T03:09:35.734Z,91.96
2023-06-29T03:10:36.604Z,92.16
2023-06-29T03:11:07.177Z,92.05
2023-06-29T03:11:39.054Z,91.96
2023-06-29T03:12:09.898Z,91.85
2023-06-29T03:12:40.778Z,91.75
2023-06-29T03:13:11.624Z,91.75
2023-06-29T03:13:42.506Z,91.35
2023-06-29T03:14:13.373Z,91.14
2023-06-29T03:14:42.911Z,91.14
2023-06-29T03:15:14.828Z,91.55
2023-06-29T03:15:46.000Z,91.75
2023-06-29T03:16:15.270Z,91.91
2023-06-29T03:16:47.313Z,91.75
2023-06-29T03:17:18.159Z,91.20
2023-06-29T03:17:49.071Z,90.83
2023-06-29T03:18:19.925Z,90.42
2023-06-29T03:18:50.762Z,90.53
2023-06-29T03:19:21.633Z,90.83
2023-06-29T03:19:52.499Z,90.94
2023-06-29T03:20:22.462Z,90.73
2023-06-29T03:20:54.354Z,90.94
2023-06-29T03:21:23.907Z,91.14
2023-06-29T03:21:55.658Z,91.08
2023-06-29T03:22:26.532Z,91.59
2023-06-29T03:22:56.080Z,91.59
2023-06-29T03:23:27.926Z,91.69
2023-06-29T03:23:57.479Z,91.89
2023-06-29T03:24:29.336Z,91.89
2023-06-29T03:25:00.232Z,92.00
2023-06-29T03:25:29.798Z,91.89
2023-06-29T03:26:01.624Z,92.00
2023-06-29T03:26:31.176Z,92.00
2023-06-29T03:27:01.716Z,92.36
2023-06-29T03:27:33.556Z,92.36
2023-06-29T03:28:03.504Z,92.26
2023-06-29T03:28:35.354Z,91.96
2023-06-29T03:29:06.242Z,91.65
2023-06-29T03:29:37.088Z,91.55
2023-06-29T03:30:07.925Z,91.44
2023-06-29T03:30:38.798Z,91.44
2023-06-29T03:31:09.734Z,91.65
2023-06-29T03:31:40.602Z,91.24
2023-06-29T03:32:11.465Z,91.14
2023-06-29T03:32:42.353Z,91.35
2023-06-29T03:33:11.837Z,91.44
2023-06-29T03:33:43.683Z,91.44
2023-06-29T03:34:14.563Z,91.44
2023-06-29T03:34:45.433Z,91.35
2023-06-29T03:35:15.012Z,91.65
2023-06-29T03:35:47.012Z,91.65
2023-06-29T03:36:17.858Z,91.96
2023-06-29T03:36:48.720Z,92.05
2023-06-29T03:37:19.462Z,91.96
2023-06-29T03:37:50.314Z,92.05
2023-06-29T03:38:21.184Z,92.16
2023-06-29T03:38:52.072Z,92.05
2023-06-29T03:39:21.622Z,92.16
2023-06-29T03:39:52.190Z,91.75
2023-06-29T03:40:23.171Z,91.44
2023-06-29T03:40:55.071Z,91.24
2023-06-29T03:41:24.632Z,91.14
2023-06-29T03:41:56.505Z,91.14
2023-06-29T03:42:27.268Z,90.94
2023-06-29T03:42:58.116Z,91.14
2023-06-29T03:43:28.079Z,91.44
2023-06-29T03:43:59.953Z,91.35
2023-06-29T03:44:30.860Z,91.65
2023-06-29T03:45:01.756Z,91.65
2023-06-29T03:45:31.711Z,91.44
2023-06-29T03:46:03.451Z,91.65
2023-06-29T03:46:34.331Z,91.85
2023-06-29T03:47:05.179Z,91.65
2023-06-29T03:47:35.192Z,91.24
2023-06-29T03:48:07.123Z,91.44
2023-06-29T03:48:38.089Z,91.44
2023-06-29T03:49:08.738Z,91.85
2023-06-29T03:49:39.594Z,91.75
2023-06-29T03:50:10.462Z,91.75
2023-06-29T03:50:41.207Z,91.55
2023-06-29T03:51:11.997Z,91.75
2023-06-29T03:51:42.860Z,91.96
2023-06-29T03:52:13.700Z,92.20
2023-06-29T03:52:43.523Z,92.00
2023-06-29T03:53:46.105Z,92.10
2023-06-29T03:54:15.655Z,92.41
2023-06-29T03:54:47.559Z,92.81
2023-06-29T03:55:18.427Z,92.81
2023-06-29T03:55:47.985Z,92.81
2023-06-29T03:56:19.841Z,92.81
2023-06-29T03:56:49.383Z,92.61
2023-06-29T03:57:21.221Z,92.71
2023-06-29T03:57:52.085Z,92.91
2023-06-29T03:58:22.932Z,92.81
2023-06-29T03:58:52.893Z,92.77
2023-06-29T03:59:24.776Z,92.57
2023-06-29T03:59:54.763Z,92.61
2023-06-29T04:00:26.622Z,92.46
2023-06-29T04:00:57.462Z,92.57
2023-06-29T04:01:28.353Z,92.97
2023-06-29T04:01:59.229Z,92.87
2023-06-29T04:02:30.173Z,92.87
2023-06-29T04:02:59.851Z,92.57
2023-06-29T04:03:30.551Z,92.67
2023-06-29T04:04:02.281Z,92.77
2023-06-29T04:04:32.891Z,92.77
2023-06-29T04:05:03.766Z,92.57
2023-06-29T04:05:34.624Z,92.36
2023-06-29T04:06:05.494Z,92.16
2023-06-29T04:06:36.377Z,91.85
2023-06-29T04:07:07.245Z,91.55
2023-06-29T04:07:36.825Z,91.75
2023-06-29T04:08:07.782Z,91.85
2023-06-29T04:08:39.660Z,92.05
2023-06-29T04:09:09.634Z,91.96
2023-06-29T04:09:41.478Z,92.16
2023-06-29T04:10:12.311Z,92.16
2023-06-29T04:10:43.184Z,92.05
2023-06-29T04:11:13.173Z,92.16
2023-06-29T04:11:45.032Z,92.26
2023-06-29T04:12:14.584Z,92.46
2023-06-29T04:12:45.142Z,92.77
2023-06-29T04:13:15.705Z,92.91
2023-06-29T04:13:47.620Z,93.07
2023-06-29T04:14:47.972Z,93.32
2023-06-29T04:15:19.864Z,92.97
2023-06-29T04:15:50.704Z,93.07
2023-06-29T04:16:21.565Z,93.18
2023-06-29T04:16:52.533Z,93.48
2023-06-29T04:17:22.940Z,92.77
2023-06-29T04:17:53.819Z,92.97
2023-06-29T04:18:24.681Z,93.07
2023-06-29T04:18:55.523Z,93.07
2023-06-29T04:19:26.381Z,93.07
2023-06-29T04:19:57.234Z,92.87
2023-06-29T04:20:28.100Z,92.77
2023-06-29T04:20:57.664Z,92.87
2023-06-29T04:21:28.639Z,92.97
2023-06-29T04:22:00.504Z,93.07
2023-06-29T04:22:31.347Z,92.87
2023-06-29T04:23:01.306Z,92.97
2023-06-29T04:23:33.067Z,92.97
2023-06-29T04:24:03.814Z,92.97
2023-06-29T04:24:33.783Z,92.77
2023-06-29T04:25:05.648Z,92.97
2023-06-29T04:25:36.408Z,93.18
2023-06-29T04:26:07.410Z,93.28
2023-06-29T04:26:36.967Z,93.48
2023-06-29T04:27:08.822Z,93.28
2023-06-29T04:27:39.723Z,93.28
2023-06-29T04:28:10.438Z,93.44
2023-06-29T04:28:39.976Z,93.24
2023-06-29T04:29:11.850Z,93.13
2023-06-29T04:29:41.402Z,92.93
2023-06-29T04:30:13.264Z,92.83
2023-06-29T04:30:42.933Z,93.03
2023-06-29T04:31:13.538Z,92.83
2023-06-29T04:31:44.145Z,92.42
2023-06-29T04:32:16.061Z,92.42
2023-06-29T04:32:45.642Z,92.32
2023-06-29T04:33:17.510Z,92.52
2023-06-29T04:33:48.368Z,92.93
2023-06-29T04:34:19.115Z,92.72
2023-06-29T04:34:49.864Z,93.03
2023-06-29T04:35:19.835Z,92.72
2023-06-29T04:35:51.697Z,92.63
2023-06-29T04:36:22.551Z,92.52
2023-06-29T04:36:53.395Z,92.22
2023-06-29T04:37:22.936Z,92.32
2023-06-29T04:37:54.821Z,92.52
2023-06-29T04:38:25.669Z,92.58
2023-06-29T04:38:56.544Z,92.79
2023-06-29T04:39:27.399Z,92.58
2023-06-29T04:39:57.004Z,92.89
2023-06-29T04:40:28.713Z,92.89
2023-06-29T04:40:59.565Z,92.89
2023-06-29T04:41:30.425Z,92.38
2023-06-29T04:42:01.288Z,92.38
2023-06-29T04:42:30.862Z,92.38
2023-06-29T04:43:02.600Z,92.48
2023-06-29T04:43:32.149Z,92.18
2023-06-29T04:44:04.024Z,92.07
2023-06-29T04:44:34.752Z,92.07
2023-06-29T04:45:05.638Z,92.18
2023-06-29T04:45:36.496Z,92.07
2023-06-29T04:46:07.425Z,91.77
2023-06-29T04:46:38.491Z,92.18
2023-06-29T04:47:08.112Z,92.18
2023-06-29T04:47:38.712Z,91.87
2023-06-29T04:48:40.332Z,91.83
2023-06-29T04:49:12.133Z,92.03
2023-06-29T04:49:41.717Z,91.72
2023-06-29T04:50:13.599Z,91.93
2023-06-29T04:50:43.218Z,92.33
2023-06-29T04:51:15.080Z,92.44
2023-06-29T04:51:45.042Z,92.33
2023-06-29T04:52:16.881Z,92.23
2023-06-29T04:52:46.691Z,91.93
2023-06-29T04:53:18.534Z,92.03
2023-06-29T04:53:49.363Z,92.13
2023-06-29T04:54:20.230Z,92.23
2023-06-29T04:54:49.790Z,92.74
2023-06-29T04:55:21.657Z,92.54
2023-06-29T04:55:52.494Z,92.03
2023-06-29T04:56:23.330Z,92.13
2023-06-29T04:56:52.885Z,91.42
2023-06-29T04:57:26.186Z,91.01
2023-06-29T04:57:54.605Z,91.31
2023-06-29T04:58:25.152Z,91.52
2023-06-29T04:58:56.900Z,91.42
2023-06-29T04:59:27.655Z,91.83
2023-06-29T04:59:58.495Z,92.09
2023-06-29T05:00:29.355Z,91.58
2023-06-29T05:00:58.925Z,91.07
2023-06-29T05:01:30.893Z,91.17
2023-06-29T05:02:00.543Z,91.17
2023-06-29T05:02:31.994Z,90.46
2023-06-29T05:03:02.758Z,90.56
2023-06-29T05:03:33.690Z,90.05
2023-06-29T05:04:04.590Z,90.05
2023-06-29T05:04:35.428Z,90.56
2023-06-29T05:05:06.300Z,89.81
2023-06-29T05:05:36.231Z,90.11
2023-06-29T05:06:06.792Z,89.91
2023-06-29T05:06:38.670Z,90.01
2023-06-29T05:07:09.572Z,90.11
2023-06-29T05:07:40.440Z,89.81
2023-06-29T05:08:09.996Z,89.81
2023-06-29T05:08:41.866Z,89.70
2023-06-29T05:09:43.571Z,89.81
2023-06-29T05:10:14.402Z,89.91
2023-06-29T05:10:45.275Z,89.91
2023-06-29T05:11:16.151Z,89.81
2023-06-29T05:11:46.993Z,89.15
2023-06-29T05:12:17.826Z,89.15
2023-06-29T05:12:48.680Z,88.95
2023-06-29T05:13:19.520Z,89.36
2023-06-29T05:13:49.084Z,89.66
2023-06-29T05:14:20.938Z,89.36
2023-06-29T05:14:51.818Z,89.46
2023-06-29T05:15:22.653Z,88.54
2023-06-29T05:15:53.413Z,88.54
2023-06-29T05:16:24.322Z,88.95
2023-06-29T05:16:55.277Z,89.46
2023-06-29T05:17:26.165Z,89.46
2023-06-29T05:17:57.118Z,89.66
2023-06-29T05:18:27.976Z,88.44
2023-06-29T05:18:58.811Z,88.04
2023-06-29T05:19:29.686Z,88.24
2023-06-29T05:20:00.564Z,88.44
2023-06-29T05:20:31.413Z,88.65
2023-06-29T05:21:02.342Z,88.81
2023-06-29T05:21:33.232Z,88.71
2023-06-29T05:22:02.811Z,87.89
2023-06-29T05:22:33.394Z,87.59
2023-06-29T05:23:05.259Z,87.69
2023-06-29T05:23:36.092Z,87.79
2023-06-29T05:24:06.964Z,88.30
2023-06-29T05:24:37.829Z,88.60
2023-06-29T05:25:07.371Z,89.01
2023-06-29T05:25:39.225Z,89.01
2023-06-29T05:26:10.074Z,89.52
2023-06-29T05:26:40.911Z,88.81
2023-06-29T05:27:10.501Z,88.46
2023-06-29T05:27:41.073Z,88.36
2023-06-29T05:28:12.935Z,88.06
2023-06-29T05:28:56.303Z,88.06
2023-06-29T05:29:14.444Z,87.95
2023-06-29T05:29:45.288Z,88.76
2023-06-29T05:30:15.268Z,88.56
2023-06-29T05:30:47.034Z,88.67
2023-06-29T05:31:17.798Z,89.17
2023-06-29T05:31:48.730Z,89.07
2023-06-29T05:32:19.770Z,88.56
2023-06-29T05:32:50.670Z,88.56
2023-06-29T05:33:20.233Z,88.56
2023-06-29T05:33:52.077Z,88.26
2023-06-29T05:34:22.933Z,88.01
2023-06-29T05:35:24.535Z,88.52
2023-06-29T05:35:54.496Z,89.13
2023-06-29T05:36:25.061Z,88.62
2023-06-29T05:36:58.530Z,88.12
2023-06-29T05:37:27.649Z,88.12
2023-06-29T05:37:58.496Z,87.92
2023-06-29T05:38:29.237Z,87.61
2023-06-29T05:38:59.191Z,87.71
2023-06-29T05:39:30.960Z,87.92
2023-06-29T05:40:01.820Z,87.57
2023-06-29T05:40:31.317Z,86.65
2023-06-29T05:41:03.523Z,86.65
2023-06-29T05:41:32.450Z,86.76
2023-06-29T05:42:04.310Z,86.45
2023-06-29T05:42:35.217Z,86.25
2023-06-29T05:43:05.187Z,86.25
2023-06-29T05:43:37.041Z,86.25
2023-06-29T05:44:07.008Z,86.15
2023-06-29T05:44:38.878Z,86.35
2023-06-29T05:45:09.746Z,86.25
2023-06-29T05:45:40.557Z,86.15
2023-06-29T05:46:10.134Z,86.51
2023-06-29T05:46:41.520Z,86.41
2023-06-29T05:47:12.368Z,86.61
2023-06-29T05:48:14.176Z,86.82
2023-06-29T05:48:45.026Z,87.52
2023-06-29T05:49:15.880Z,87.52
2023-06-29T05:49:46.710Z,87.52
2023-06-29T05:50:17.581Z,87.63
2023-06-29T05:50:48.456Z,86.61
2023-06-29T05:51:19.306Z,86.51
2023-06-29T05:51:50.156Z,86.61
2023-06-29T05:52:20.116Z,86.82
2023-06-29T05:52:51.987Z,86.61
2023-06-29T05:53:22.870Z,86.71
2023-06-29T05:53:53.738Z,85.46
2023-06-29T05:54:24.491Z,85.66
2023-06-29T05:54:55.358Z,85.86
2023-06-29T05:55:24.917Z,85.56
2023-06-29T05:55:56.670Z,86.16
2023-06-29T05:56:26.216Z,85.96
2023-06-29T05:56:58.067Z,85.86
2023-06-29T05:57:28.909Z,85.96
2023-06-29T05:57:59.741Z,86.07
2023-06-29T05:58:30.592Z,86.07
2023-06-29T05:59:01.432Z,85.25
2023-06-29T05:59:32.285Z,85.56
2023-06-29T06:00:03.063Z,85.46
2023-06-29T06:00:32.573Z,85.66
2023-06-29T06:01:07.026Z,86.73
2023-06-29T06:01:35.156Z,86.77
2023-06-29T06:02:04.724Z,86.53
2023-06-29T06:02:36.596Z,87.14
2023-06-29T06:03:07.864Z,87.04
2023-06-29T06:03:38.349Z,86.53
2023-06-29T06:04:09.380Z,86.63
2023-06-29T06:04:39.797Z,86.33
2023-06-29T06:05:10.656Z,86.13
2023-06-29T06:05:41.524Z,86.13
2023-06-29T06:06:12.400Z,86.13
2023-06-29T06:06:43.248Z,86.43
2023-06-29T06:07:12.876Z,86.73
2023-06-29T06:07:44.588Z,86.13
2023-06-29T06:08:15.705Z,86.13
2023-06-29T06:08:45.830Z,85.82
2023-06-29T06:09:16.715Z,85.62
2023-06-29T06:09:47.453Z,85.42
2023-06-29T06:10:17.003Z,85.21
2023-06-29T06:10:48.845Z,85.11
2023-06-29T06:11:19.697Z,85.11
2023-06-29T06:11:50.548Z,85.11
2023-06-29T06:12:20.099Z,85.68
2023-06-29T06:12:51.085Z,85.68
2023-06-29T06:13:22.929Z,85.58
2023-06-29T06:13:53.782Z,85.68
2023-06-29T06:14:24.530Z,85.78
2023-06-29T06:14:55.387Z,85.58
2023-06-29T06:15:25.332Z,85.17
2023-06-29T06:15:57.230Z,85.07
2023-06-29T06:16:28.201Z,85.58
2023-06-29T06:16:59.083Z,85.27
2023-06-29T06:17:29.885Z,84.77
2023-06-29T06:18:00.804Z,84.87
2023-06-29T06:18:30.429Z,84.97
2023-06-29T06:19:02.259Z,84.87
2023-06-29T06:19:32.215Z,84.67
2023-06-29T06:20:04.100Z,84.47
2023-06-29T06:20:33.667Z,84.27
2023-06-29T06:21:05.416Z,84.56
2023-06-29T06:22:05.780Z,84.47
2023-06-29T06:22:36.344Z,84.22
2023-06-29T06:23:07.312Z,84.22
2023-06-29T06:23:37.896Z,83.21
2023-06-29T06:24:09.776Z,83.11
2023-06-29T06:24:40.625Z,83.11
2023-06-29T06:25:11.458Z,83.11
2023-06-29T06:25:42.322Z,83.21
2023-06-29T06:26:13.088Z,83.31
2023-06-29T06:26:43.956Z,83.31
2023-06-29T06:27:14.801Z,83.21
2023-06-29T06:27:45.687Z,83.11
2023-06-29T06:28:16.578Z,82.90
2023-06-29T06:28:47.438Z,82.90
2023-06-29T06:29:18.314Z,83.01
2023-06-29T06:29:47.869Z,82.90
2023-06-29T06:30:19.702Z,82.81
2023-06-29T06:30:52.438Z,82.60
2023-06-29T06:31:33.432Z,82.60
2023-06-29T06:31:52.063Z,82.50
2023-06-29T06:32:21.830Z,82.60
2023-06-29T06:32:52.316Z,82.60
2023-06-29T06:33:24.168Z,82.70
2023-06-29T06:33:53.794Z,82.36
2023-06-29T06:34:56.329Z,81.96
2023-06-29T06:35:27.164Z,82.16
2023-06-29T06:35:57.931Z,82.06
2023-06-29T06:36:28.795Z,82.56
2023-06-29T06:36:59.669Z,82.87
2023-06-29T06:37:29.243Z,82.76
2023-06-29T06:38:01.114Z,82.67
2023-06-29T06:38:45.016Z,82.76
2023-06-29T06:39:02.702Z,82.87
2023-06-29T06:39:32.260Z,83.37
2023-06-29T06:40:04.097Z,83.27
2023-06-29T06:40:34.989Z,83.17
2023-06-29T06:41:04.590Z,83.13
2023-06-29T06:41:36.443Z,83.17
2023-06-29T06:42:06.413Z,83.13
2023-06-29T06:42:38.286Z,83.03
2023-06-29T06:43:07.876Z,83.03
2023-06-29T06:43:39.740Z,83.03
2023-06-29T06:44:10.613Z,82.93
2023-06-29T06:44:41.362Z,82.93